createdAt,value
2023-05-03T00:00:06.077Z,982.00
2023-05-03T00:01:06.081Z,984.00
2023-05-03T00:02:07.219Z,984.00
2023-05-03T00:03:07.231Z,987.00
2023-05-03T00:04:06.197Z,987.00
2023-05-03T00:05:08.007Z,986.00
2023-05-03T00:06:07.312Z,984.00
2023-05-03T00:07:06.281Z,982.00
2023-05-03T00:08:06.329Z,981.00
2023-05-03T00:09:07.441Z,979.00
2023-05-03T00:10:06.437Z,982.00
2023-05-03T00:11:07.470Z,976.00
2023-05-03T00:12:07.506Z,973.00
2023-05-03T00:13:06.545Z,978.00
2023-05-03T00:14:07.594Z,978.00
2023-05-03T00:15:06.587Z,979.00
2023-05-03T00:16:07.635Z,976.00
2023-05-03T00:17:07.742Z,969.00
2023-05-03T00:18:07.860Z,969.00
2023-05-03T00:19:10.740Z,969.00
2023-05-03T00:20:07.808Z,967.00
2023-05-03T00:21:07.763Z,967.00
2023-05-03T00:22:06.748Z,968.00
2023-05-03T00:23:06.725Z,968.00
2023-05-03T00:24:06.727Z,966.00
2023-05-03T00:25:06.760Z,966.00
2023-05-03T00:26:07.708Z,968.00
2023-05-03T00:27:07.714Z,969.00
2023-05-03T00:28:06.681Z,968.00
2023-05-03T00:29:06.677Z,965.00
2023-05-03T00:30:06.690Z,963.00
2023-05-03T00:31:07.902Z,961.00
2023-05-03T00:32:07.777Z,963.00
2023-05-03T00:33:07.821Z,963.00
2023-05-03T00:34:07.640Z,964.00
2023-05-03T00:35:06.686Z,965.00
2023-05-03T00:36:07.681Z,964.00
2023-05-03T00:37:07.740Z,965.00
2023-05-03T00:38:07.740Z,966.00
2023-05-03T00:39:07.698Z,964.00
2023-05-03T00:40:07.651Z,965.00
2023-05-03T00:41:06.653Z,964.00
2023-05-03T00:42:07.590Z,961.00
2023-05-03T00:43:07.718Z,960.00
2023-05-03T00:44:06.593Z,960.00
2023-05-03T00:45:07.602Z,960.00
2023-05-03T00:46:16.161Z,960.00
2023-05-03T00:47:07.662Z,962.00
2023-05-03T00:48:07.587Z,960.00
2023-05-03T00:49:06.553Z,960.00
2023-05-03T00:50:07.579Z,961.00
2023-05-03T00:51:07.533Z,961.00
2023-05-03T00:52:07.605Z,957.00
2023-05-03T00:53:06.590Z,956.00
2023-05-03T00:54:06.592Z,955.00
2023-05-03T00:55:06.511Z,957.00
2023-05-03T00:56:07.517Z,956.00
2023-05-03T00:57:06.518Z,956.00
2023-05-03T00:58:06.596Z,957.00
2023-05-03T00:59:06.512Z,954.00
2023-05-03T01:00:07.576Z,955.00
2023-05-03T01:01:07.610Z,958.00
2023-05-03T01:02:06.677Z,957.00
2023-05-03T01:03:06.722Z,955.00
2023-05-03T01:04:06.720Z,955.00
2023-05-03T01:05:06.775Z,953.00
2023-05-03T01:06:07.855Z,953.00
2023-05-03T01:07:07.929Z,951.00
2023-05-03T01:08:07.885Z,950.00
2023-05-03T01:09:06.930Z,950.00
2023-05-03T01:10:08.011Z,948.00
2023-05-03T01:11:08.050Z,945.00
2023-05-03T01:12:08.076Z,945.00
2023-05-03T01:13:08.150Z,944.00
2023-05-03T01:14:08.159Z,947.00
2023-05-03T01:15:08.223Z,948.00
2023-05-03T01:16:08.312Z,949.00
2023-05-03T01:17:07.296Z,949.00
2023-05-03T01:18:07.398Z,948.00
2023-05-03T01:19:07.410Z,950.00
2023-05-03T01:20:08.472Z,948.00
2023-05-03T01:21:08.529Z,949.00
2023-05-03T01:22:09.359Z,948.00
2023-05-03T01:23:07.618Z,946.00
2023-05-03T01:24:07.678Z,944.00
2023-05-03T01:25:07.687Z,945.00
2023-05-03T01:26:07.777Z,946.00
2023-05-03T01:27:08.771Z,946.00
2023-05-03T01:28:07.861Z,948.00
2023-05-03T01:29:08.869Z,950.00
2023-05-03T01:30:07.949Z,952.00
2023-05-03T01:31:08.996Z,951.00
2023-05-03T01:32:09.050Z,953.00
2023-05-03T01:33:09.108Z,951.00
2023-05-03T01:34:09.048Z,949.00
2023-05-03T01:35:08.095Z,946.00
2023-05-03T01:36:09.183Z,945.00
2023-05-03T01:37:08.145Z,946.00
2023-05-03T01:38:08.220Z,943.00
2023-05-03T01:39:09.220Z,944.00
2023-05-03T01:40:09.303Z,939.00
2023-05-03T01:41:08.311Z,939.00
2023-05-03T01:42:09.381Z,937.00
2023-05-03T01:43:09.378Z,938.00
2023-05-03T01:44:08.424Z,939.00
2023-05-03T01:45:09.501Z,938.00
2023-05-03T01:46:09.546Z,937.00
2023-05-03T01:47:08.565Z,940.00
2023-05-03T01:48:09.639Z,939.00
2023-05-03T01:49:08.654Z,939.00
2023-05-03T01:50:09.809Z,943.00
2023-05-03T01:51:09.720Z,944.00
2023-05-03T01:52:08.771Z,943.00
2023-05-03T01:53:09.868Z,940.00
2023-05-03T01:54:08.879Z,940.00
2023-05-03T01:55:08.922Z,939.00
2023-05-03T01:56:08.936Z,937.00
2023-05-03T01:57:09.989Z,933.00
2023-05-03T01:58:09.038Z,933.00
2023-05-03T01:59:10.074Z,931.00
2023-05-03T02:00:09.303Z,931.00
2023-05-03T02:01:09.323Z,932.00
2023-05-03T02:02:09.492Z,932.00
2023-05-03T02:03:10.310Z,934.00
2023-05-03T02:04:09.316Z,931.00
2023-05-03T02:05:10.413Z,930.00
2023-05-03T02:06:10.412Z,933.00
2023-05-03T02:07:10.427Z,934.00
2023-05-03T02:08:09.482Z,935.00
2023-05-03T02:09:10.512Z,933.00
2023-05-03T02:10:09.582Z,932.00
2023-05-03T02:11:10.546Z,931.00
2023-05-03T02:12:10.605Z,929.00
2023-05-03T02:13:10.658Z,928.00
2023-05-03T02:14:10.731Z,928.00
2023-05-03T02:15:09.734Z,928.00
2023-05-03T02:16:09.842Z,931.00
2023-05-03T02:17:10.814Z,932.00
2023-05-03T02:18:10.849Z,930.00
2023-05-03T02:19:10.890Z,930.00
2023-05-03T02:20:10.954Z,925.00
2023-05-03T02:21:09.978Z,925.00
2023-05-03T02:22:10.005Z,921.00
2023-05-03T02:23:11.050Z,921.00
2023-05-03T02:24:10.098Z,922.00
2023-05-03T02:25:11.166Z,921.00
2023-05-03T02:26:10.225Z,922.00
2023-05-03T02:27:10.210Z,922.00
2023-05-03T02:28:11.282Z,925.00
2023-05-03T02:29:10.309Z,928.00
2023-05-03T02:30:11.355Z,928.00
2023-05-03T02:31:11.539Z,928.00
2023-05-03T02:32:11.472Z,928.00
2023-05-03T02:33:11.657Z,927.00
2023-05-03T02:34:11.525Z,923.00
2023-05-03T02:35:10.587Z,922.00
2023-05-03T02:36:11.627Z,923.00
2023-05-03T02:37:10.692Z,924.00
2023-05-03T02:38:11.731Z,923.00
2023-05-03T02:39:11.777Z,925.00
2023-05-03T02:40:10.844Z,925.00
2023-05-03T02:41:11.888Z,927.00
2023-05-03T02:42:10.936Z,925.00
2023-05-03T02:43:11.992Z,924.00
2023-05-03T02:44:12.050Z,923.00
2023-05-03T02:45:12.081Z,922.00
2023-05-03T02:46:11.219Z,922.00
2023-05-03T02:47:12.161Z,921.00
2023-05-03T02:48:12.197Z,923.00
2023-05-03T02:49:11.340Z,922.00
2023-05-03T02:50:12.304Z,922.00
2023-05-03T02:51:12.367Z,922.00
2023-05-03T02:52:11.410Z,918.00
2023-05-03T02:53:12.431Z,917.00
2023-05-03T02:54:11.488Z,916.00
2023-05-03T02:55:12.586Z,915.00
2023-05-03T02:56:11.566Z,916.00
2023-05-03T02:57:11.644Z,916.00
2023-05-03T02:58:11.691Z,913.00
2023-05-03T02:59:12.764Z,915.00
2023-05-03T03:00:12.826Z,918.00
2023-05-03T03:01:13.109Z,917.00
2023-05-03T03:02:11.865Z,917.00
2023-05-03T03:03:12.034Z,918.00
2023-05-03T03:04:12.964Z,918.00
2023-05-03T03:05:12.035Z,919.00
2023-05-03T03:06:13.134Z,917.00
2023-05-03T03:07:13.095Z,917.00
2023-05-03T03:08:12.127Z,916.00
2023-05-03T03:09:12.688Z,916.00
2023-05-03T03:10:13.223Z,918.00
2023-05-03T03:11:13.338Z,916.00
2023-05-03T03:12:12.356Z,915.00
2023-05-03T03:13:13.452Z,915.00
2023-05-03T03:14:12.461Z,917.00
2023-05-03T03:15:12.451Z,916.00
2023-05-03T03:16:13.705Z,916.00
2023-05-03T03:17:13.558Z,917.00
2023-05-03T03:18:13.584Z,918.00
2023-05-03T03:19:12.634Z,917.00
2023-05-03T03:20:12.743Z,915.00
2023-05-03T03:21:13.782Z,913.00
2023-05-03T03:22:12.911Z,916.00
2023-05-03T03:23:12.919Z,917.00
2023-05-03T03:24:13.923Z,918.00
2023-05-03T03:25:13.986Z,920.00
2023-05-03T03:26:14.044Z,920.00
2023-05-03T03:27:14.098Z,923.00
2023-05-03T03:28:14.157Z,920.00
2023-05-03T03:29:13.207Z,918.00
2023-05-03T03:30:14.290Z,917.00
2023-05-03T03:31:14.340Z,918.00
2023-05-03T03:32:14.591Z,921.00
2023-05-03T03:33:13.508Z,921.00
2023-05-03T03:34:13.489Z,921.00
2023-05-03T03:35:14.527Z,921.00
2023-05-03T03:36:14.624Z,917.00
2023-05-03T03:37:13.685Z,916.00
2023-05-03T03:38:13.761Z,918.00
2023-05-03T03:39:14.903Z,918.00
2023-05-03T03:40:14.848Z,915.00
2023-05-03T03:41:14.050Z,915.00
2023-05-03T03:42:13.944Z,914.00
2023-05-03T03:43:14.112Z,911.00
2023-05-03T03:44:15.063Z,909.00
2023-05-03T03:45:15.138Z,907.00
2023-05-03T03:46:15.200Z,907.00
2023-05-03T03:47:15.292Z,905.00
2023-05-03T03:48:14.311Z,905.00
2023-05-03T03:49:15.322Z,906.00
2023-05-03T03:50:15.409Z,906.00
2023-05-03T03:51:14.435Z,904.00
2023-05-03T03:52:14.516Z,905.00
2023-05-03T03:53:15.579Z,908.00
2023-05-03T03:54:14.621Z,908.00
2023-05-03T03:55:15.657Z,910.00
2023-05-03T03:56:15.753Z,909.00
2023-05-03T03:57:14.794Z,909.00
2023-05-03T03:58:14.815Z,907.00
2023-05-03T03:59:14.880Z,905.00
2023-05-03T04:00:15.936Z,908.00
2023-05-03T04:01:15.999Z,907.00
2023-05-03T04:02:16.122Z,905.00
2023-05-03T04:03:15.145Z,906.00
2023-05-03T04:04:16.335Z,903.00
2023-05-03T04:05:16.213Z,903.00
2023-05-03T04:06:16.335Z,901.00
2023-05-03T04:07:16.325Z,898.00
2023-05-03T04:08:16.382Z,894.00
2023-05-03T04:09:16.446Z,895.00
2023-05-03T04:10:15.481Z,894.00
2023-05-03T04:11:15.537Z,895.00
2023-05-03T04:12:16.594Z,897.00
2023-05-03T04:13:16.656Z,896.00
2023-05-03T04:14:15.684Z,899.00
2023-05-03T04:15:16.811Z,902.00
2023-05-03T04:16:15.832Z,903.00
2023-05-03T04:17:15.954Z,902.00
2023-05-03T04:18:15.933Z,899.00
2023-05-03T04:19:17.084Z,896.00
2023-05-03T04:20:17.081Z,897.00
2023-05-03T04:21:17.195Z,896.00
2023-05-03T04:22:16.191Z,893.00
2023-05-03T04:23:16.218Z,896.00
2023-05-03T04:24:16.255Z,898.00
2023-05-03T04:25:17.504Z,900.00
2023-05-03T04:26:30.107Z,899.00
2023-05-03T04:27:17.387Z,901.00
2023-05-03T04:28:17.367Z,901.00
2023-05-03T04:29:17.394Z,897.00
2023-05-03T04:30:17.387Z,894.00
2023-05-03T04:31:17.393Z,893.00
2023-05-03T04:32:16.371Z,893.00
2023-05-03T04:33:17.344Z,893.00
2023-05-03T04:34:17.324Z,890.00
2023-05-03T04:35:16.327Z,893.00
2023-05-03T04:36:17.315Z,892.00
2023-05-03T04:37:16.392Z,892.00
2023-05-03T04:38:16.441Z,892.00
2023-05-03T04:39:16.498Z,890.00
2023-05-03T04:40:16.533Z,891.00
2023-05-03T04:41:17.617Z,891.00
2023-05-03T04:42:16.653Z,891.00
2023-05-03T04:43:16.683Z,889.00
2023-05-03T04:44:17.776Z,887.00
2023-05-03T04:45:17.836Z,885.00
2023-05-03T04:46:17.971Z,886.00
2023-05-03T04:47:16.901Z,887.00
2023-05-03T04:48:16.926Z,887.00
2023-05-03T04:49:18.028Z,888.00
2023-05-03T04:50:18.099Z,890.00
2023-05-03T04:51:17.153Z,888.00
2023-05-03T04:52:18.229Z,889.00
2023-05-03T04:53:17.233Z,891.00
2023-05-03T04:54:18.266Z,888.00
2023-05-03T04:55:18.338Z,885.00
2023-05-03T04:56:18.386Z,886.00
2023-05-03T04:57:18.507Z,887.00
2023-05-03T04:58:17.578Z,885.00
2023-05-03T04:59:18.645Z,884.00
2023-05-03T05:00:17.630Z,885.00
2023-05-03T05:01:18.769Z,887.00
2023-05-03T05:02:18.759Z,887.00
2023-05-03T05:03:17.903Z,887.00
2023-05-03T05:04:18.965Z,890.00
2023-05-03T05:05:20.412Z,888.00
2023-05-03T05:06:18.266Z,887.00
2023-05-03T05:07:18.034Z,888.00
2023-05-03T05:08:18.988Z,890.00
2023-05-03T05:09:17.967Z,890.00
2023-05-03T05:10:18.920Z,890.00
2023-05-03T05:11:17.980Z,890.00
2023-05-03T05:12:18.154Z,893.00
2023-05-03T05:13:17.918Z,891.00
2023-05-03T05:14:17.907Z,892.00
2023-05-03T05:15:17.913Z,890.00
2023-05-03T05:16:18.908Z,890.00
2023-05-03T05:17:18.913Z,888.00
2023-05-03T05:18:18.959Z,889.00
2023-05-03T05:19:17.876Z,890.00
2023-05-03T05:20:18.945Z,890.00
2023-05-03T05:21:18.857Z,890.00
2023-05-03T05:22:17.852Z,893.00
2023-05-03T05:23:18.853Z,896.00
2023-05-03T05:24:18.831Z,895.00
2023-05-03T05:25:18.806Z,900.00
2023-05-03T05:26:17.805Z,902.00
2023-05-03T05:27:17.801Z,902.00
2023-05-03T05:28:17.854Z,902.00
2023-05-03T05:29:17.891Z,904.00
2023-05-03T05:30:17.787Z,904.00
2023-05-03T05:31:18.868Z,906.00
2023-05-03T05:32:17.909Z,908.00
2023-05-03T05:33:19.436Z,909.00
2023-05-03T05:34:19.032Z,909.00
2023-05-03T05:35:19.082Z,904.00
2023-05-03T05:36:18.264Z,903.00
2023-05-03T05:37:19.644Z,902.00
2023-05-03T05:38:19.494Z,906.00
2023-05-03T05:39:18.438Z,915.00
2023-05-03T05:40:19.316Z,922.00
2023-05-03T05:41:18.379Z,928.00
2023-05-03T05:42:19.660Z,931.00
2023-05-03T05:43:19.432Z,937.00
2023-05-03T05:44:19.458Z,945.00
2023-05-03T05:45:18.527Z,959.00
2023-05-03T05:46:19.556Z,956.00
2023-05-03T05:47:18.654Z,962.00
2023-05-03T05:48:19.714Z,979.00
2023-05-03T05:49:19.591Z,989.00
2023-05-03T05:50:19.443Z,996.00
2023-05-03T05:51:19.667Z,1004.00
2023-05-03T05:52:19.612Z,1098.00
2023-05-03T05:53:19.780Z,1085.00
2023-05-03T05:54:19.652Z,1077.00
2023-05-03T05:55:19.667Z,1072.00
2023-05-03T05:56:18.781Z,1075.00
2023-05-03T05:57:19.648Z,1084.00
2023-05-03T05:58:19.652Z,1095.00
2023-05-03T05:59:18.701Z,1119.00
2023-05-03T06:00:19.733Z,1141.00
2023-05-03T06:01:19.817Z,1188.00
2023-05-03T06:02:19.989Z,1205.00
2023-05-03T06:03:19.891Z,1284.00
2023-05-03T06:04:19.911Z,1288.00
2023-05-03T06:05:20.178Z,1287.00
2023-05-03T06:06:20.304Z,1296.00
2023-05-03T06:07:19.173Z,1309.00
2023-05-03T06:08:26.112Z,1370.00
2023-05-03T06:09:24.538Z,1370.00
2023-05-03T06:10:20.113Z,1389.00
2023-05-03T06:11:19.094Z,1409.00
2023-05-03T06:12:20.115Z,1416.00
2023-05-03T06:13:20.091Z,1420.00
2023-05-03T06:14:20.092Z,1444.00
2023-05-03T06:15:20.067Z,1472.00
2023-05-03T06:16:20.077Z,1471.00
2023-05-03T06:17:20.376Z,1486.00
2023-05-03T06:18:20.087Z,1522.00
2023-05-03T06:19:19.054Z,1622.00
2023-05-03T06:20:20.075Z,1612.00
2023-05-03T06:21:20.019Z,1620.00
2023-05-03T06:22:19.412Z,1630.00
2023-05-03T06:23:20.014Z,1655.00
2023-05-03T06:24:18.998Z,1812.00
2023-05-03T06:25:20.016Z,1749.00
2023-05-03T06:26:18.995Z,1732.00
2023-05-03T06:27:20.015Z,1740.00
2023-05-03T06:28:18.985Z,1776.00
2023-05-03T06:29:19.977Z,1814.00
2023-05-03T06:30:19.987Z,1823.00
2023-05-03T06:31:20.000Z,1835.00
2023-05-03T06:32:19.952Z,1965.00
2023-05-03T06:33:19.993Z,1920.00
2023-05-03T06:34:18.935Z,1914.00
2023-05-03T06:35:19.976Z,1925.00
2023-05-03T06:36:18.911Z,2033.00
2023-05-03T06:37:18.911Z,2027.00
2023-05-03T06:38:19.939Z,2031.00
2023-05-03T06:39:19.900Z,2047.00
2023-05-03T06:40:19.896Z,2067.00
2023-05-03T06:41:18.885Z,2086.00
2023-05-03T06:42:19.882Z,2102.00
2023-05-03T06:43:19.883Z,2131.00
2023-05-03T06:44:19.873Z,2161.00
2023-05-03T06:45:19.869Z,2230.00
2023-05-03T06:46:20.379Z,2258.00
2023-05-03T06:47:19.835Z,2279.00
2023-05-03T06:48:19.987Z,2291.00
2023-05-03T06:49:19.882Z,2309.00
2023-05-03T06:50:19.917Z,2318.00
2023-05-03T06:51:19.959Z,2345.00
2023-05-03T06:52:19.420Z,2355.00
2023-05-03T06:53:20.100Z,2387.00
2023-05-03T06:54:20.217Z,2464.00
2023-05-03T06:55:20.212Z,2439.00
2023-05-03T06:56:20.228Z,2483.00
2023-05-03T06:57:20.418Z,2569.00
2023-05-03T06:58:19.209Z,2547.00
2023-05-03T06:59:20.252Z,2562.00
2023-05-03T07:00:19.324Z,2576.00
2023-05-03T07:01:19.402Z,2588.00
2023-05-03T07:02:19.436Z,2597.00
2023-05-03T07:03:19.638Z,2619.00
2023-05-03T07:04:20.679Z,2663.00
2023-05-03T07:05:20.693Z,2708.00
2023-05-03T07:06:19.840Z,2730.00
2023-05-03T07:07:19.926Z,2748.00
2023-05-03T07:08:20.818Z,2771.00
2023-05-03T07:09:26.220Z,2788.00
2023-05-03T07:10:20.895Z,2805.00
2023-05-03T07:11:20.864Z,2823.00
2023-05-03T07:12:20.878Z,2849.00
2023-05-03T07:13:20.847Z,2864.00
2023-05-03T07:14:19.854Z,2993.00
2023-05-03T07:15:20.843Z,2981.00
2023-05-03T07:16:20.851Z,2981.00
2023-05-03T07:17:19.826Z,2987.00
2023-05-03T07:18:20.803Z,3000.00
2023-05-03T07:19:19.801Z,3018.00
2023-05-03T07:20:20.828Z,3030.00
2023-05-03T07:21:20.821Z,3046.00
2023-05-03T07:22:20.786Z,3058.00
2023-05-03T07:23:20.765Z,3074.00
2023-05-03T07:24:20.753Z,3299.00
2023-05-03T07:25:19.814Z,3225.00
2023-05-03T07:26:20.775Z,3195.00
2023-05-03T07:27:20.755Z,3192.00
2023-05-03T07:28:20.741Z,3192.00
2023-05-03T07:29:20.792Z,3202.00
2023-05-03T07:30:19.729Z,3292.00
2023-05-03T07:31:20.732Z,3263.00
2023-05-03T07:32:19.748Z,3280.00
2023-05-03T07:33:20.753Z,3295.00
2023-05-03T07:34:20.724Z,3321.00
2023-05-03T07:35:19.681Z,3332.00
2023-05-03T07:36:20.677Z,3354.00
2023-05-03T07:37:20.812Z,3390.00
2023-05-03T07:38:20.673Z,3405.00
2023-05-03T07:39:19.675Z,3431.00
2023-05-03T07:40:19.656Z,3441.00
2023-05-03T07:41:20.651Z,3452.00
2023-05-03T07:42:20.669Z,3475.00
2023-05-03T07:43:20.634Z,3494.00
2023-05-03T07:44:20.661Z,3510.00
2023-05-03T07:45:20.623Z,3499.00
2023-05-03T07:46:20.679Z,3423.00
2023-05-03T07:47:20.609Z,3392.00
2023-05-03T07:48:20.082Z,3401.00
2023-05-03T07:49:19.619Z,3410.00
2023-05-03T07:50:20.660Z,3336.00
2023-05-03T07:51:19.610Z,3362.00
2023-05-03T07:52:20.595Z,3465.00
2023-05-03T07:53:20.975Z,3471.00
2023-05-03T07:54:20.559Z,3473.00
2023-05-03T07:55:19.573Z,3476.00
2023-05-03T07:56:19.550Z,3468.00
2023-05-03T07:57:19.553Z,3467.00
2023-05-03T07:58:28.415Z,3467.00
2023-05-03T07:59:20.545Z,3465.00
2023-05-03T08:00:20.529Z,3465.00
2023-05-03T08:01:20.511Z,3460.00
2023-05-03T08:02:19.571Z,3453.00
2023-05-03T08:03:20.628Z,3446.00
2023-05-03T08:04:20.897Z,3445.00
2023-05-03T08:05:20.733Z,3438.00
2023-05-03T08:06:20.589Z,3430.00
2023-05-03T08:07:20.472Z,3420.00
2023-05-03T08:08:19.470Z,3418.00
2023-05-03T08:09:20.546Z,3415.00
2023-05-03T08:10:20.480Z,3410.00
2023-05-03T08:11:19.469Z,3406.00
2023-05-03T08:12:20.458Z,3404.00
2023-05-03T08:13:20.439Z,3398.00
2023-05-03T08:14:19.440Z,3393.00
2023-05-03T08:15:20.431Z,3392.00
2023-05-03T08:16:20.474Z,3385.00
2023-05-03T08:17:20.412Z,3378.00
2023-05-03T08:18:20.935Z,3375.00
2023-05-03T08:19:19.403Z,3370.00
2023-05-03T08:20:20.424Z,3370.00
2023-05-03T08:21:19.465Z,3366.00
2023-05-03T08:22:20.378Z,3362.00
2023-05-03T08:23:19.366Z,3355.00
2023-05-03T08:24:20.355Z,3352.00
2023-05-03T08:25:20.432Z,3349.00
2023-05-03T08:26:19.360Z,3349.00
2023-05-03T08:27:19.354Z,3344.00
2023-05-03T08:28:19.375Z,3341.00
2023-05-03T08:29:20.337Z,3341.00
2023-05-03T08:30:20.329Z,3333.00
2023-05-03T08:31:19.353Z,3330.00
2023-05-03T08:32:20.306Z,3321.00
2023-05-03T08:33:19.314Z,3313.00
2023-05-03T08:34:20.293Z,3302.00
2023-05-03T08:35:20.295Z,3293.00
2023-05-03T08:36:20.288Z,3286.00
2023-05-03T08:37:20.302Z,3259.00
2023-05-03T08:38:20.281Z,3241.00
2023-05-03T08:39:20.273Z,3066.00
2023-05-03T08:40:19.267Z,2753.00
2023-05-03T08:41:20.320Z,2349.00
2023-05-03T08:42:20.238Z,2593.00
2023-05-03T08:43:19.443Z,2744.00
2023-05-03T08:44:20.215Z,2021.00
2023-05-03T08:45:20.224Z,2340.00
2023-05-03T08:46:19.250Z,2089.00
2023-05-03T08:47:20.203Z,1582.00
2023-05-03T08:48:20.194Z,1322.00
2023-05-03T08:49:19.180Z,1151.00
2023-05-03T08:50:20.193Z,984.00
2023-05-03T08:51:20.208Z,834.00
2023-05-03T08:52:20.165Z,724.00
2023-05-03T08:53:20.156Z,658.00
2023-05-03T08:54:19.150Z,619.00
2023-05-03T08:55:20.135Z,614.00
2023-05-03T08:56:19.129Z,564.00
2023-05-03T08:57:20.215Z,513.00
2023-05-03T08:58:20.448Z,508.00
2023-05-03T08:59:19.115Z,497.00
2023-05-03T09:00:20.099Z,484.00
2023-05-03T09:01:19.166Z,470.00
2023-05-03T09:02:19.240Z,441.00
2023-05-03T09:03:19.322Z,439.00
2023-05-03T09:04:20.394Z,439.00
2023-05-03T09:05:20.255Z,444.00
2023-05-03T09:06:20.365Z,442.00
2023-05-03T09:07:19.287Z,439.00
2023-05-03T09:08:19.327Z,435.00
2023-05-03T09:09:19.299Z,433.00
2023-05-03T09:10:19.529Z,434.00
2023-05-03T09:11:19.329Z,438.00
2023-05-03T09:12:20.328Z,449.00
2023-05-03T09:13:20.422Z,515.00
2023-05-03T09:14:19.443Z,509.00
2023-05-03T09:15:20.473Z,515.00
2023-05-03T09:16:19.589Z,530.00
2023-05-03T09:17:19.583Z,588.00
2023-05-03T09:18:20.692Z,646.00
2023-05-03T09:19:19.653Z,670.00
2023-05-03T09:20:19.685Z,674.00
2023-05-03T09:21:20.678Z,665.00
2023-05-03T09:22:20.642Z,585.00
2023-05-03T09:23:20.658Z,577.00
2023-05-03T09:24:20.663Z,564.00
2023-05-03T09:25:20.730Z,511.00
2023-05-03T09:26:20.751Z,497.00
2023-05-03T09:27:19.772Z,485.00
2023-05-03T09:28:19.807Z,473.00
2023-05-03T09:29:19.908Z,465.00
2023-05-03T09:30:20.846Z,460.00
2023-05-03T09:31:20.032Z,456.00
2023-05-03T09:32:20.973Z,455.00
2023-05-03T09:33:19.985Z,451.00
2023-05-03T09:34:21.051Z,445.00
2023-05-03T09:35:21.096Z,436.00
2023-05-03T09:36:20.131Z,433.00
2023-05-03T09:37:21.181Z,429.00
2023-05-03T09:38:20.218Z,428.00
2023-05-03T09:39:20.253Z,425.00
2023-05-03T09:40:20.324Z,424.00
2023-05-03T09:41:21.356Z,420.00
2023-05-03T09:42:20.440Z,420.00
2023-05-03T09:43:21.460Z,420.00
2023-05-03T09:44:21.628Z,429.00
2023-05-03T09:45:21.619Z,436.00
2023-05-03T09:46:21.692Z,443.00
2023-05-03T09:47:21.666Z,462.00
2023-05-03T09:48:22.079Z,474.00
2023-05-03T09:49:21.718Z,492.00
2023-05-03T09:50:21.736Z,536.00
2023-05-03T09:51:21.814Z,633.00
2023-05-03T09:52:22.009Z,606.00
2023-05-03T09:53:21.828Z,647.00
2023-05-03T09:54:20.830Z,654.00
2023-05-03T09:55:20.891Z,624.00
2023-05-03T09:56:21.142Z,639.00
2023-05-03T09:57:22.046Z,669.00
2023-05-03T09:58:21.061Z,755.00
2023-05-03T09:59:28.962Z,695.00
2023-05-03T10:00:22.119Z,750.00
2023-05-03T10:01:21.412Z,763.00
2023-05-03T10:02:22.196Z,795.00
2023-05-03T10:03:21.173Z,817.00
2023-05-03T10:04:22.064Z,844.00
2023-05-03T10:05:21.082Z,826.00
2023-05-03T10:06:22.216Z,940.00
2023-05-03T10:07:22.049Z,975.00
2023-05-03T10:08:22.045Z,942.00
2023-05-03T10:09:22.023Z,943.00
2023-05-03T10:10:22.008Z,984.00
2023-05-03T10:11:22.006Z,938.00
2023-05-03T10:12:22.009Z,912.00
2023-05-03T10:13:22.003Z,952.00
2023-05-03T10:14:21.253Z,953.00
2023-05-03T10:15:21.988Z,930.00
2023-05-03T10:16:21.063Z,929.00
2023-05-03T10:17:22.334Z,941.00
2023-05-03T10:18:21.068Z,948.00
2023-05-03T10:19:21.029Z,977.00
2023-05-03T10:20:21.046Z,981.00
2023-05-03T10:21:22.033Z,999.00
2023-05-03T10:22:21.998Z,966.00
2023-05-03T10:23:22.010Z,932.00
2023-05-03T10:24:22.053Z,1080.00
2023-05-03T10:25:21.315Z,943.00
2023-05-03T10:26:21.035Z,1057.00
2023-05-03T10:27:21.977Z,1041.00
2023-05-03T10:28:21.978Z,1045.00
2023-05-03T10:29:21.979Z,1109.00
2023-05-03T10:30:21.952Z,1138.00
2023-05-03T10:31:21.986Z,1136.00
2023-05-03T10:32:21.944Z,1134.00
2023-05-03T10:33:21.009Z,1152.00
2023-05-03T10:34:21.933Z,1176.00
2023-05-03T10:35:21.903Z,1173.00
2023-05-03T10:36:21.916Z,1152.00
2023-05-03T10:37:21.893Z,1159.00
2023-05-03T10:38:20.893Z,1232.00
2023-05-03T10:39:20.946Z,1171.00
2023-05-03T10:40:20.976Z,1177.00
2023-05-03T10:41:20.887Z,1205.00
2023-05-03T10:42:22.004Z,1217.00
2023-05-03T10:43:20.871Z,1249.00
2023-05-03T10:44:20.942Z,1259.00
2023-05-03T10:45:20.855Z,1149.00
2023-05-03T10:46:20.862Z,1235.00
2023-05-03T10:47:21.939Z,1310.00
2023-05-03T10:48:21.820Z,1261.00
2023-05-03T10:49:20.846Z,1247.00
2023-05-03T10:50:20.805Z,1250.00
2023-05-03T10:51:21.837Z,1260.00
2023-05-03T10:52:21.822Z,1308.00
2023-05-03T10:53:21.832Z,1280.00
2023-05-03T10:54:21.804Z,1288.00
2023-05-03T10:55:21.780Z,1303.00
2023-05-03T10:56:21.795Z,1316.00
2023-05-03T10:57:21.800Z,1318.00
2023-05-03T10:58:20.842Z,1332.00
2023-05-03T10:59:20.906Z,1338.00
2023-05-03T11:00:20.954Z,1342.00
2023-05-03T11:01:21.012Z,1354.00
2023-05-03T11:02:22.100Z,1368.00
2023-05-03T11:03:21.115Z,1382.00
2023-05-03T11:04:22.180Z,1383.00
2023-05-03T11:05:21.254Z,1393.00
2023-05-03T11:06:22.306Z,1409.00
2023-05-03T11:07:22.336Z,1427.00
2023-05-03T11:08:22.457Z,1414.00
2023-05-03T11:09:22.445Z,1407.00
2023-05-03T11:10:21.518Z,1416.00
2023-05-03T11:11:22.586Z,1416.00
2023-05-03T11:12:21.663Z,1440.00
2023-05-03T11:13:22.766Z,1441.00
2023-05-03T11:14:22.757Z,1426.00
2023-05-03T11:15:22.837Z,1434.00
2023-05-03T11:16:21.962Z,1435.00
2023-05-03T11:17:22.968Z,1332.00
2023-05-03T11:18:21.974Z,1358.00
2023-05-03T11:19:23.043Z,1354.00
2023-05-03T11:20:22.109Z,1350.00
2023-05-03T11:21:22.194Z,1359.00
2023-05-03T11:22:22.210Z,1427.00
2023-05-03T11:23:23.349Z,1368.00
2023-05-03T11:24:23.313Z,1362.00
2023-05-03T11:25:23.377Z,1351.00
2023-05-03T11:26:22.410Z,1377.00
2023-05-03T11:27:22.459Z,1362.00
2023-05-03T11:28:23.530Z,1351.00
2023-05-03T11:29:23.731Z,1386.00
2023-05-03T11:30:22.707Z,1435.00
2023-05-03T11:31:23.938Z,1506.00
2023-05-03T11:32:23.835Z,1472.00
2023-05-03T11:33:22.880Z,1463.00
2023-05-03T11:34:23.856Z,1461.00
2023-05-03T11:35:22.889Z,1477.00
2023-05-03T11:36:23.971Z,1481.00
2023-05-03T11:37:23.030Z,1462.00
2023-05-03T11:38:24.086Z,1482.00
2023-05-03T11:39:24.107Z,1474.00
2023-05-03T11:40:23.155Z,1474.00
2023-05-03T11:41:23.199Z,1472.00
2023-05-03T11:42:24.254Z,1471.00
2023-05-03T11:43:24.358Z,1468.00
2023-05-03T11:44:23.360Z,1466.00
2023-05-03T11:45:24.433Z,1465.00
2023-05-03T11:46:24.598Z,1464.00
2023-05-03T11:47:23.673Z,1459.00
2023-05-03T11:48:23.763Z,1456.00
2023-05-03T11:49:24.711Z,1454.00
2023-05-03T11:50:24.722Z,1454.00
2023-05-03T11:51:23.790Z,1448.00
2023-05-03T11:52:23.865Z,1448.00
2023-05-03T11:53:23.989Z,1444.00
2023-05-03T11:54:26.831Z,1444.00
2023-05-03T11:55:24.984Z,1443.00
2023-05-03T11:56:25.001Z,1444.00
2023-05-03T11:57:24.955Z,1445.00
2023-05-03T11:58:24.962Z,1443.00
2023-05-03T11:59:23.947Z,1438.00
2023-05-03T12:00:24.928Z,1441.00
2023-05-03T12:01:24.959Z,1447.00
2023-05-03T12:02:25.034Z,1451.00
2023-05-03T12:03:30.266Z,1479.00
2023-05-03T12:04:25.071Z,1482.00
2023-05-03T12:05:25.293Z,1487.00
2023-05-03T12:06:25.864Z,1493.00
2023-05-03T12:07:26.732Z,1490.00
2023-05-03T12:08:25.995Z,1488.00
2023-05-03T12:09:26.215Z,1490.00
2023-05-03T12:10:26.719Z,1510.00
2023-05-03T12:11:27.384Z,1521.00
2023-05-03T12:12:30.317Z,1521.00
2023-05-03T12:13:25.940Z,1524.00
2023-05-03T12:14:25.104Z,1538.00
2023-05-03T12:15:26.378Z,1575.00
2023-05-03T12:16:24.284Z,1565.00
2023-05-03T12:17:25.467Z,1567.00
2023-05-03T12:18:25.566Z,1567.00
2023-05-03T12:19:25.505Z,1575.00